Time;durP1;ratioP1;P1;durP2;ratioP2;P2;SDS_P1;SDS_P2;PMS_P1;PMS_P2;Temp;Humidity;BMP_temperature;BMP_pressure;BME280_temperature;BME280_humidity;BME280_pressure;Samples;Min_cycle;Max_cycle;Signal;HPM_P1;HPM_P2
2022/12/29 00:00:47;;;;;;;12.57;11.77;;;8.90;99.90;;;;;;4212504;28;20055;-84
2022/12/29 00:03:07;;;;;;;18.20;16.50;;;9.00;99.90;;;;;;4226286;28;20316;-84
2022/12/29 00:05:28;;;;;;;14.27;12.90;;;9.00;99.90;;;;;;4222381;28;20050;-84
2022/12/29 00:07:49;;;;;;;12.75;11.75;;;9.00;99.90;;;;;;4222364;28;20125;-84
2022/12/29 00:10:09;;;;;;;11.65;10.85;;;9.00;99.90;;;;;;4229719;28;20050;-84
2022/12/29 00:15:36;;;;;;;11.48;10.60;;;9.10;99.90;;;;;;4228349;28;20363;-84
2022/12/29 00:17:47;;;;;;;10.73;10.23;;;9.10;99.90;;;;;;4231955;28;20046;-84
2022/12/29 00:36:13;;;;;;;17.00;15.48;;;9.20;99.90;;;;;;4227696;28;20231;-84
2022/12/29 00:44:06;;;;;;;18.63;16.92;;;9.00;99.90;;;;;;4224996;28;20086;-83
2022/12/29 00:46:26;;;;;;;18.43;16.83;;;9.10;99.90;;;;;;4213540;28;20039;-84
2022/12/29 00:51:25;;;;;;;19.83;16.40;;;9.10;99.90;;;;;;4232896;28;20051;-83
2022/12/29 00:53:45;;;;;;;20.80;18.67;;;9.10;99.90;;;;;;4229749;28;20113;-84
2022/12/29 00:56:05;;;;;;;19.65;17.50;;;9.10;99.90;;;;;;4232343;28;20050;-83
2022/12/29 00:58:28;;;;;;;19.67;18.02;;;9.20;99.90;;;;;;4229442;28;20051;-84
2022/12/29 01:00:48;;;;;;;20.83;16.65;;;9.10;99.90;;;;;;4217575;28;20047;-84
2022/12/29 01:03:08;;;;;;;18.30;16.48;;;9.20;99.90;;;;;;4224686;28;20111;-84
2022/12/29 01:05:28;;;;;;;17.65;15.93;;;9.20;99.90;;;;;;4224129;28;20062;-84
2022/12/29 01:07:49;;;;;;;18.23;16.63;;;9.20;99.90;;;;;;4212696;28;20054;-84
2022/12/29 01:10:11;;;;;;;21.63;17.85;;;9.20;99.90;;;;;;4230754;28;20366;-84
2022/12/29 01:12:43;;;;;;;17.55;16.13;;;9.20;99.90;;;;;;4222794;28;20077;-83
2022/12/29 01:15:04;;;;;;;19.77;17.77;;;9.20;99.90;;;;;;4231167;28;20054;-84
2022/12/29 01:17:27;;;;;;;18.75;17.08;;;9.20;99.90;;;;;;4216912;28;20111;-84
2022/12/29 01:19:47;;;;;;;19.10;17.33;;;9.20;99.90;;;;;;4219642;28;20227;-84
2022/12/29 01:22:07;;;;;;;20.20;18.13;;;9.10;99.90;;;;;;4235862;28;20055;-84
2022/12/29 01:24:27;;;;;;;20.42;18.65;;;9.10;99.90;;;;;;4232722;28;20119;-84
2022/12/29 01:26:48;;;;;;;21.98;18.92;;;9.20;99.90;;;;;;4222689;28;20091;-84
2022/12/29 01:29:08;;;;;;;25.95;19.70;;;9.10;99.90;;;;;;4228152;28;20047;-83
2022/12/29 01:31:27;;;;;;;19.17;17.38;;;9.10;99.90;;;;;;4226798;28;20074;-84
2022/12/29 01:33:48;;;;;;;20.23;18.17;;;9.10;99.90;;;;;;4214021;28;20035;-84
2022/12/29 01:36:11;;;;;;;17.55;15.88;;;9.10;99.90;;;;;;4233935;28;20401;-83
2022/12/29 01:38:33;;;;;;;18.42;16.73;;;9.10;99.90;;;;;;4229747;28;20405;-84
2022/12/29 01:40:53;;;;;;;17.63;16.33;;;9.10;99.90;;;;;;4212879;28;20055;-84
2022/12/29 01:43:14;;;;;;;16.63;15.07;;;9.10;99.90;;;;;;4233930;28;20043;-84
2022/12/29 01:45:34;;;;;;;17.50;16.08;;;9.10;99.90;;;;;;4223162;28;20231;-84
2022/12/29 01:47:59;;;;;;;16.40;14.90;;;9.10;99.90;;;;;;4217682;28;20062;-83
2022/12/29 01:50:33;;;;;;;14.80;13.55;;;9.10;99.90;;;;;;4216832;28;20362;-84
2022/12/29 01:53:05;;;;;;;16.73;15.27;;;9.00;99.90;;;;;;4213286;28;20080;-84
2022/12/29 01:55:28;;;;;;;16.50;15.20;;;9.00;99.90;;;;;;4223757;28;20086;-84
2022/12/29 01:57:49;;;;;;;;;;;9.00;99.90;;;;;;4230717;28;20051;-84
2022/12/29 02:00:12;;;;;;;14.55;13.40;;;9.00;99.90;;;;;;4231009;28;19923;-84
2022/12/29 02:02:33;;;;;;;14.23;13.10;;;9.00;99.90;;;;;;4212642;28;20106;-85
2022/12/29 02:04:58;;;;;;;12.88;11.88;;;9.10;99.90;;;;;;4228816;28;20795;-85
2022/12/29 02:07:27;;;;;;;15.57;13.07;;;9.10;99.90;;;;;;4227424;28;20294;-86
2022/12/29 02:09:49;;;;;;;12.38;11.70;;;9.10;99.90;;;;;;4233259;28;20058;-86
2022/12/29 02:12:10;;;;;;;12.90;12.10;;;9.10;99.90;;;;;;4230838;28;20290;-85
2022/12/29 02:14:31;;;;;;;14.85;13.38;;;9.10;99.90;;;;;;4210893;28;20283;-85
2022/12/29 02:17:12;;;;;;;11.27;10.68;;;9.10;99.90;;;;;;4219042;28;20087;-85
2022/12/29 02:20:13;;;;;;;13.75;10.77;;;9.10;99.90;;;;;;4225017;28;20062;-85
2022/12/29 02:23:25;;;;;;;11.90;11.30;;;9.10;99.90;;;;;;4200709;28;20244;-85
2022/12/29 02:26:21;;;;;;;11.55;10.55;;;9.10;99.90;;;;;;4224002;28;20066;-85
2022/12/29 02:28:50;;;;;;;11.10;10.57;;;9.10;99.90;;;;;;4226077;28;20062;-85
2022/12/29 02:31:29;;;;;;;11.13;10.43;;;9.10;99.90;;;;;;4228873;28;20079;-85
2022/12/29 02:34:01;;;;;;;12.60;11.65;;;9.10;99.90;;;;;;4212261;28;20043;-85
2022/12/29 02:36:29;;;;;;;13.65;12.43;;;9.10;99.90;;;;;;4214390;28;20054;-85
2022/12/29 02:39:04;;;;;;;12.07;11.13;;;9.10;99.90;;;;;;4220950;28;20146;-85
2022/12/29 02:41:43;;;;;;;14.40;13.40;;;9.00;99.90;;;;;;4231902;28;20050;-85
2022/12/29 02:44:16;;;;;;;14.10;13.00;;;9.00;99.90;;;;;;4214122;28;20055;-85
2022/12/29 02:47:16;;;;;;;13.38;12.68;;;9.00;99.90;;;;;;4229904;28;20057;-86
2022/12/29 02:49:48;;;;;;;14.57;13.10;;;9.00;99.90;;;;;;4213750;28;20088;-85
2022/12/29 02:52:17;;;;;;;14.45;13.35;;;9.00;99.90;;;;;;4222145;28;20070;-85
2022/12/29 02:54:43;;;;;;;15.60;14.27;;;9.00;99.90;;;;;;4214851;28;20095;-85
2022/12/29 02:57:05;;;;;;;15.57;13.90;;;9.00;99.90;;;;;;4229612;28;20408;-85
2022/12/29 02:59:25;;;;;;;15.77;14.02;;;9.00;99.90;;;;;;4228956;28;20070;-85
2022/12/29 03:02:16;;;;;;;13.90;12.80;;;9.00;99.90;;;;;;4228810;28;20291;-85
2022/12/29 03:05:12;;;;;;;17.90;16.50;;;8.90;99.90;;;;;;4217232;28;20078;-85
2022/12/29 03:08:11;;;;;;;16.45;14.85;;;8.90;99.90;;;;;;4234448;28;20058;-85
2022/12/29 03:10:58;;;;;;;17.08;15.60;;;8.80;99.90;;;;;;4231451;28;20086;-86
2022/12/29 03:16:45;;;;;;;17.88;16.65;;;8.80;99.90;;;;;;4172155;28;20290;-85
2022/12/29 03:19:45;;;;;;;17.65;16.08;;;8.80;99.90;;;;;;4171258;28;20044;-85
2022/12/29 03:22:30;;;;;;;19.63;17.67;;;8.80;99.90;;;;;;4097768;29;20054;-85
2022/12/29 03:24:58;;;;;;;21.58;18.85;;;8.80;99.90;;;;;;4099803;29;20364;-86
2022/12/29 03:27:23;;;;;;;20.75;18.17;;;8.70;99.90;;;;;;4099853;29;20136;-85
2022/12/29 03:29:53;;;;;;;19.52;17.55;;;8.70;99.90;;;;;;4096833;29;20149;-85
2022/12/29 03:32:14;;;;;;;18.65;16.75;;;8.70;99.90;;;;;;4077163;29;20238;-85
2022/12/29 03:34:36;;;;;;;19.33;17.50;;;8.70;99.90;;;;;;4097280;28;20122;-85
2022/12/29 03:37:12;;;;;;;19.33;17.73;;;8.70;99.90;;;;;;4090650;29;20050;-85
2022/12/29 03:39:32;;;;;;;20.50;18.52;;;8.70;99.90;;;;;;4095177;29;20055;-85
2022/12/29 03:42:02;;;;;;;22.90;20.58;;;8.70;99.90;;;;;;4090302;29;20164;-85
2022/12/29 03:44:39;;;;;;;21.13;19.25;;;8.70;99.90;;;;;;4076641;29;20309;-85
2022/12/29 03:46:59;;;;;;;21.83;19.83;;;8.70;99.90;;;;;;4100642;29;20377;-85
2022/12/29 03:49:18;;;;;;;21.10;19.33;;;8.70;99.90;;;;;;4097465;29;20091;-85
2022/12/29 03:51:39;;;;;;;22.05;19.85;;;8.70;99.90;;;;;;4096665;28;20065;-85
2022/12/29 03:53:59;;;;;;;20.35;18.60;;;8.60;99.90;;;;;;4138291;28;20046;-86
2022/12/29 03:56:19;;;;;;;21.63;19.63;;;8.60;99.90;;;;;;4138207;28;20049;-85
2022/12/29 03:58:39;;;;;;;22.75;20.15;;;8.70;99.90;;;;;;4193543;28;20065;-85
2022/12/29 04:00:59;;;;;;;19.58;17.58;;;8.70;99.90;;;;;;4218513;28;20408;-86
2022/12/29 04:03:19;;;;;;;19.95;18.13;;;8.70;99.90;;;;;;4228246;28;20061;-85
2022/12/29 04:05:39;;;;;;;18.15;16.65;;;8.70;99.90;;;;;;4213722;28;20042;-85
2022/12/29 04:08:00;;;;;;;16.05;14.95;;;8.60;99.90;;;;;;4227294;28;20076;-85
2022/12/29 04:10:19;;;;;;;16.42;15.15;;;8.60;99.90;;;;;;4224710;28;20047;-85
2022/12/29 04:12:41;;;;;;;15.07;14.27;;;8.60;99.90;;;;;;4215845;28;20051;-85
2022/12/29 04:15:01;;;;;;;15.43;13.90;;;8.70;99.90;;;;;;4220586;28;20039;-85
2022/12/29 04:17:20;;;;;;;15.13;14.02;;;8.70;99.90;;;;;;4223923;28;20472;-86
2022/12/29 04:19:40;;;;;;;14.15;13.07;;;8.80;99.90;;;;;;4223582;28;20039;-86
2022/12/29 04:22:01;;;;;;;13.25;12.52;;;8.80;99.90;;;;;;4225004;28;20098;-86
2022/12/29 04:24:21;;;;;;;15.57;13.95;;;8.80;99.90;;;;;;4233972;28;20050;-85
2022/12/29 04:26:42;;;;;;;15.57;14.38;;;8.80;99.90;;;;;;4229152;28;20043;-86
2022/12/29 04:29:01;;;;;;;14.93;13.57;;;8.80;99.90;;;;;;4228883;28;20051;-85
2022/12/29 04:31:21;;;;;;;14.77;13.50;;;8.80;99.90;;;;;;4231844;28;20047;-85
2022/12/29 04:33:42;;;;;;;15.20;14.13;;;8.70;99.90;;;;;;4235102;28;20257;-85
2022/12/29 04:36:03;;;;;;;13.50;12.40;;;8.80;99.90;;;;;;4224547;28;20047;-85
2022/12/29 04:38:23;;;;;;;13.65;12.88;;;8.70;99.90;;;;;;4224806;28;20381;-86
2022/12/29 04:40:44;;;;;;;12.73;12.02;;;8.70;99.90;;;;;;4219286;28;20050;-85
2022/12/29 04:43:04;;;;;;;13.32;12.38;;;8.70;99.90;;;;;;4222628;28;20123;-86
2022/12/29 04:45:24;;;;;;;13.20;12.20;;;8.80;99.90;;;;;;4231217;28;20097;-86
2022/12/29 04:47:44;;;;;;;13.52;12.60;;;8.80;99.90;;;;;;4216736;28;20036;-85
2022/12/29 04:50:04;;;;;;;13.25;12.23;;;8.90;99.90;;;;;;4224702;28;20054;-85
2022/12/29 04:52:24;;;;;;;14.55;13.18;;;8.90;99.90;;;;;;4232678;28;20078;-85
2022/12/29 04:54:44;;;;;;;13.90;12.77;;;8.90;99.90;;;;;;4230487;28;20167;-86
2022/12/29 04:57:04;;;;;;;12.70;11.90;;;8.80;99.90;;;;;;4231388;28;20092;-85
2022/12/29 04:59:25;;;;;;;12.70;11.77;;;8.80;99.90;;;;;;4233267;28;20330;-85
2022/12/29 05:01:44;;;;;;;12.38;11.63;;;8.80;99.90;;;;;;4229328;28;20105;-85
2022/12/29 05:04:04;;;;;;;12.18;11.20;;;8.80;99.90;;;;;;4217161;28;20107;-85
2022/12/29 05:06:24;;;;;;;11.98;11.05;;;8.80;99.90;;;;;;4232439;28;20059;-85
2022/12/29 05:08:44;;;;;;;10.90;10.38;;;8.80;99.90;;;;;;4233624;28;20239;-85
2022/12/29 05:11:05;;;;;;;11.60;10.73;;;8.90;99.90;;;;;;4215602;28;20111;-85
2022/12/29 05:13:24;;;;;;;12.02;11.27;;;8.90;99.90;;;;;;4229863;28;20452;-85
2022/12/29 05:15:52;;;;;;;13.73;11.75;;;8.90;99.90;;;;;;4236206;28;20111;-86
2022/12/29 05:18:11;;;;;;;11.95;11.27;;;8.90;99.90;;;;;;4232815;28;20043;-85
2022/12/29 05:20:32;;;;;;;10.20;9.70;;;8.90;99.90;;;;;;4235509;28;20391;-85
2022/12/29 05:22:52;;;;;;;12.93;11.93;;;8.80;99.90;;;;;;4228780;28;22186;-85
2022/12/29 05:25:12;;;;;;;13.35;12.27;;;8.80;99.90;;;;;;4227237;28;20050;-85
2022/12/29 05:27:32;;;;;;;11.50;10.98;;;8.80;99.90;;;;;;4216381;28;20039;-85
2022/12/29 05:29:53;;;;;;;13.18;12.25;;;8.80;99.90;;;;;;4218887;28;20087;-85
2022/12/29 05:32:13;;;;;;;13.93;12.82;;;8.80;99.90;;;;;;4216803;28;20038;-85
2022/12/29 05:34:33;;;;;;;14.15;13.18;;;8.80;99.90;;;;;;4212961;28;20052;-85
2022/12/29 05:36:54;;;;;;;12.90;12.00;;;8.70;99.90;;;;;;4232269;28;20280;-85
2022/12/29 05:39:13;;;;;;;10.85;10.25;;;8.70;99.90;;;;;;4222242;28;20412;-85
2022/12/29 05:41:34;;;;;;;13.43;12.60;;;8.90;99.90;;;;;;4232027;28;20113;-85
2022/12/29 05:43:54;;;;;;;13.05;12.10;;;8.80;99.90;;;;;;4230397;28;20039;-85
2022/12/29 05:46:14;;;;;;;12.00;10.48;;;8.80;99.90;;;;;;4224284;28;20079;-85
2022/12/29 05:48:34;;;;;;;10.40;9.85;;;9.00;99.90;;;;;;4229365;28;20073;-85
2022/12/29 05:50:57;;;;;;;;;;;9.00;99.90;;;;;;4218688;28;20097;-85
2022/12/29 05:53:17;;;;;;;10.48;9.93;;;9.00;99.90;;;;;;4223983;28;19945;-86
2022/12/29 05:55:37;;;;;;;9.55;8.85;;;9.10;99.90;;;;;;4230806;28;20141;-85
2022/12/29 05:58:04;;;;;;;8.93;8.32;;;9.10;99.90;;;;;;4226650;28;20043;-85
2022/12/29 06:00:24;;;;;;;10.57;10.10;;;9.10;99.90;;;;;;4222910;28;20055;-85
2022/12/29 06:02:44;;;;;;;9.15;8.95;;;9.10;99.90;;;;;;4222286;28;20274;-85
2022/12/29 06:05:05;;;;;;;9.00;8.25;;;9.20;99.90;;;;;;4223527;28;20086;-85
2022/12/29 06:07:25;;;;;;;10.00;9.38;;;9.20;99.90;;;;;;4223837;28;20055;-85
2022/12/29 06:09:44;;;;;;;9.27;8.50;;;9.20;99.90;;;;;;4228926;28;20097;-85
2022/12/29 06:12:05;;;;;;;12.10;8.27;;;9.20;99.90;;;;;;4228179;28;20353;-85
2022/12/29 06:14:25;;;;;;;10.00;9.23;;;9.30;99.90;;;;;;4230934;28;20051;-85
2022/12/29 06:16:47;;;;;;;8.45;7.85;;;9.30;99.90;;;;;;4228613;28;20031;-85
2022/12/29 06:19:07;;;;;;;8.73;8.52;;;9.30;99.90;;;;;;4236864;28;20035;-85
2022/12/29 06:21:27;;;;;;;8.43;7.97;;;9.30;99.90;;;;;;4244060;28;20026;-85
2022/12/29 06:23:47;;;;;;;9.15;8.38;;;9.30;99.90;;;;;;4223941;28;20047;-86
2022/12/29 06:26:08;;;;;;;9.32;9.10;;;9.30;99.90;;;;;;4217562;28;20046;-87
2022/12/29 06:28:27;;;;;;;9.25;8.57;;;9.30;99.90;;;;;;4219499;28;20286;-86
2022/12/29 06:30:48;;;;;;;8.57;7.97;;;9.20;99.90;;;;;;4227641;28;20054;-86
2022/12/29 06:33:08;;;;;;;8.70;8.20;;;9.20;99.90;;;;;;4231329;28;20392;-86
2022/12/29 06:35:28;;;;;;;8.32;7.82;;;9.30;99.90;;;;;;4228310;28;20042;-86
2022/12/29 06:37:48;;;;;;;10.20;9.27;;;9.20;99.90;;;;;;4226839;28;20054;-86
2022/12/29 06:40:09;;;;;;;8.77;8.23;;;9.20;99.90;;;;;;4230907;28;20095;-86
2022/12/29 06:42:29;;;;;;;10.18;9.55;;;9.20;99.90;;;;;;4221901;28;20285;-86
2022/12/29 06:44:49;;;;;;;8.88;8.48;;;9.10;99.90;;;;;;4214272;28;20384;-87
2022/12/29 06:47:09;;;;;;;13.18;10.07;;;9.00;99.90;;;;;;4210762;28;20055;-86
2022/12/29 06:49:29;;;;;;;11.57;10.73;;;9.00;99.90;;;;;;4231396;28;20054;-86
2022/12/29 06:51:49;;;;;;;10.82;10.20;;;9.00;99.90;;;;;;4222295;28;20100;-86
2022/12/29 06:54:09;;;;;;;11.10;10.25;;;9.00;99.90;;;;;;4228139;28;20055;-86
2022/12/29 06:56:29;;;;;;;15.27;13.93;;;9.00;99.90;;;;;;4231357;28;20043;-86
2022/12/29 06:58:49;;;;;;;12.23;11.50;;;8.80;99.90;;;;;;4233819;28;20093;-86
2022/12/29 07:01:09;;;;;;;13.48;12.40;;;8.90;99.90;;;;;;4222661;28;20042;-86
2022/12/29 07:03:29;;;;;;;13.30;12.23;;;8.80;99.90;;;;;;4212922;28;20051;-85
2022/12/29 07:05:49;;;;;;;15.48;14.32;;;8.70;99.90;;;;;;4225190;28;20058;-84
2022/12/29 07:08:09;;;;;;;14.25;13.32;;;8.60;99.90;;;;;;4210815;28;20119;-84
2022/12/29 07:10:29;;;;;;;13.38;12.25;;;8.60;99.90;;;;;;4226437;28;20074;-84
2022/12/29 07:12:49;;;;;;;13.00;12.23;;;8.70;99.90;;;;;;4215879;28;20046;-84
2022/12/29 07:15:09;;;;;;;17.90;14.38;;;8.70;99.90;;;;;;4216093;28;20081;-84
2022/12/29 07:17:29;;;;;;;14.57;13.73;;;8.60;99.90;;;;;;4224585;28;20090;-84
2022/12/29 07:19:49;;;;;;;16.33;13.40;;;8.60;99.90;;;;;;4219059;28;20134;-84
2022/12/29 07:22:09;;;;;;;16.27;14.05;;;8.60;99.90;;;;;;4221534;28;20078;-84
2022/12/29 07:24:29;;;;;;;15.10;13.95;;;8.60;99.90;;;;;;4227735;28;20055;-85
2022/12/29 07:26:49;;;;;;;14.98;13.88;;;8.60;99.90;;;;;;4224997;28;20129;-84
2022/12/29 07:29:08;;;;;;;15.30;14.23;;;8.60;99.90;;;;;;4214256;28;20086;-85
2022/12/29 07:31:30;;;;;;;14.40;13.30;;;8.60;99.90;;;;;;4231676;28;20138;-84
2022/12/29 07:33:50;;;;;;;15.77;14.52;;;8.70;99.90;;;;;;4230964;28;20055;-84
2022/12/29 07:36:11;;;;;;;15.20;13.63;;;8.60;99.90;;;;;;4227566;28;20059;-84
2022/12/29 07:38:31;;;;;;;14.52;13.43;;;8.70;99.90;;;;;;4229384;28;20036;-84
2022/12/29 07:40:51;;;;;;;13.57;12.63;;;8.70;99.90;;;;;;4229201;28;20091;-84
2022/12/29 07:43:11;;;;;;;14.07;13.25;;;8.70;99.90;;;;;;4226172;28;20047;-84
2022/12/29 07:45:31;;;;;;;15.10;14.05;;;8.80;99.90;;;;;;4223954;28;20321;-84
2022/12/29 07:47:51;;;;;;;13.40;12.50;;;8.70;99.90;;;;;;4233675;28;20055;-85
2022/12/29 07:50:11;;;;;;;12.95;11.68;;;8.70;99.90;;;;;;4227692;28;20273;-84
2022/12/29 07:52:31;;;;;;;14.10;13.02;;;8.80;99.90;;;;;;4220155;28;20054;-84
2022/12/29 07:54:50;;;;;;;13.15;12.40;;;8.80;99.90;;;;;;4229095;28;20046;-84
2022/12/29 07:57:11;;;;;;;13.98;12.98;;;8.80;99.90;;;;;;4225458;28;20055;-84
2022/12/29 07:59:30;;;;;;;11.85;11.35;;;8.80;99.90;;;;;;4230284;28;20078;-85
2022/12/29 08:01:51;;;;;;;11.48;10.98;;;8.90;99.90;;;;;;4231521;28;20051;-84
2022/12/29 08:04:11;;;;;;;10.85;10.15;;;8.90;99.90;;;;;;4227124;28;20051;-84
2022/12/29 08:06:32;;;;;;;10.88;10.07;;;8.90;99.90;;;;;;4215243;28;20378;-84
2022/12/29 08:08:52;;;;;;;11.00;10.05;;;8.90;99.90;;;;;;4217733;28;20377;-85
2022/12/29 08:11:13;;;;;;;12.38;11.68;;;9.00;99.90;;;;;;4230314;28;20054;-84
2022/12/29 08:13:32;;;;;;;9.93;9.30;;;8.90;99.90;;;;;;4228622;28;20042;-84
2022/12/29 08:15:52;;;;;;;14.50;9.85;;;8.90;99.90;;;;;;4219739;28;20055;-84
2022/12/29 08:18:13;;;;;;;10.30;9.70;;;8.90;99.90;;;;;;4233881;28;20377;-84
2022/12/29 08:20:33;;;;;;;9.27;8.90;;;9.00;99.90;;;;;;4229960;28;20118;-85
2022/12/29 08:22:54;;;;;;;9.55;8.85;;;9.00;99.90;;;;;;4230960;28;20043;-84
2022/12/29 08:25:14;;;;;;;11.35;10.63;;;9.00;99.90;;;;;;4232828;28;20370;-85
2022/12/29 08:27:34;;;;;;;10.48;9.70;;;9.00;99.90;;;;;;4232364;28;20047;-84
2022/12/29 08:29:54;;;;;;;10.32;9.68;;;9.00;99.90;;;;;;4230337;28;20050;-84
2022/12/29 08:32:14;;;;;;;10.35;9.85;;;9.00;99.90;;;;;;4223871;28;20267;-84
2022/12/29 08:34:34;;;;;;;9.20;8.25;;;9.00;99.90;;;;;;4235546;28;20108;-84
2022/12/29 08:36:54;;;;;;;9.20;8.52;;;9.00;99.90;;;;;;4230687;28;20145;-85
2022/12/29 08:39:14;;;;;;;9.32;8.85;;;9.10;99.90;;;;;;4234909;28;20354;-84
2022/12/29 08:41:34;;;;;;;7.53;7.22;;;9.10;99.90;;;;;;4225395;28;20051;-85
2022/12/29 08:43:54;;;;;;;8.38;8.00;;;9.10;99.90;;;;;;4231306;28;20104;-85
2022/12/29 08:46:14;;;;;;;8.60;7.88;;;9.20;99.90;;;;;;4230994;28;20111;-84
2022/12/29 08:48:34;;;;;;;8.38;8.07;;;9.10;99.90;;;;;;4215148;28;20404;-85
2022/12/29 08:50:54;;;;;;;8.95;8.35;;;9.10;99.90;;;;;;4226886;28;20392;-85
2022/12/29 08:53:14;;;;;;;9.15;8.40;;;9.20;99.90;;;;;;4225052;28;20207;-84
2022/12/29 08:55:35;;;;;;;9.65;9.05;;;9.20;99.90;;;;;;4231286;28;20286;-84
2022/12/29 08:57:55;;;;;;;9.05;8.32;;;9.20;99.90;;;;;;4234484;28;20116;-84
2022/12/29 09:00:15;;;;;;;8.48;7.93;;;9.10;99.90;;;;;;4230856;28;20046;-86
2022/12/29 09:02:34;;;;;;;8.77;8.05;;;9.10;99.90;;;;;;4232952;28;20357;-86
2022/12/29 09:04:56;;;;;;;8.15;7.55;;;9.10;99.90;;;;;;4219908;28;20090;-86
2022/12/29 09:07:16;;;;;;;9.13;8.27;;;9.10;99.90;;;;;;4224333;28;20066;-85
2022/12/29 09:09:36;;;;;;;8.27;7.65;;;9.20;99.90;;;;;;4222627;28;20055;-86
2022/12/29 09:11:57;;;;;;;7.95;7.38;;;9.20;99.90;;;;;;4223710;28;20133;-86
2022/12/29 09:14:16;;;;;;;9.38;8.63;;;9.20;99.90;;;;;;4232989;28;20042;-86
2022/12/29 09:16:37;;;;;;;8.73;8.23;;;9.20;99.90;;;;;;4222311;28;20294;-86
2022/12/29 09:18:56;;;;;;;8.77;8.38;;;9.30;99.90;;;;;;4227712;28;20408;-86
2022/12/29 09:21:17;;;;;;;8.52;8.13;;;9.20;99.90;;;;;;4211409;28;20362;-86
2022/12/29 09:23:37;;;;;;;8.85;8.23;;;9.20;99.90;;;;;;4229837;28;20113;-86
2022/12/29 09:25:58;;;;;;;9.88;9.10;;;9.30;99.90;;;;;;4230856;28;20055;-86
2022/12/29 09:28:18;;;;;;;8.73;8.23;;;9.30;99.90;;;;;;4224349;28;20326;-85
2022/12/29 09:30:39;;;;;;;10.32;9.38;;;9.30;99.90;;;;;;4230808;28;20108;-85
2022/12/29 09:32:59;;;;;;;8.05;7.60;;;9.30;99.90;;;;;;4230254;28;20049;-84
2022/12/29 09:35:19;;;;;;;7.25;6.97;;;9.40;99.90;;;;;;4226762;28;20392;-85
2022/12/29 09:37:39;;;;;;;6.47;6.13;;;9.50;99.90;;;;;;4230725;28;20112;-85
2022/12/29 09:39:59;;;;;;;7.55;7.13;;;9.50;99.90;;;;;;4235017;28;20050;-85
2022/12/29 09:42:23;;;;;;;6.80;6.53;;;9.50;99.90;;;;;;4225743;28;20052;-84
2022/12/29 09:45:04;;;;;;;8.45;7.95;;;9.60;99.90;;;;;;4232252;28;20039;-85
2022/12/29 09:47:26;;;;;;;8.60;8.30;;;9.60;99.90;;;;;;4232889;28;20080;-84
2022/12/29 09:49:52;;;;;;;7.80;7.35;;;9.60;99.90;;;;;;4223263;28;20055;-85
2022/12/29 09:52:20;;;;;;;8.13;7.63;;;9.60;99.90;;;;;;4214672;28;20115;-85
2022/12/29 09:54:55;;;;;;;8.82;8.15;;;9.60;99.90;;;;;;4228283;28;20058;-84
2022/12/29 09:57:38;;;;;;;8.10;7.70;;;9.60;99.90;;;;;;4227172;28;20635;-84
2022/12/29 10:00:10;;;;;;;7.22;6.70;;;9.60;99.90;;;;;;4213278;28;20078;-85
2022/12/29 10:03:02;;;;;;;7.30;6.78;;;9.60;99.90;;;;;;4215773;28;20055;-84
2022/12/29 10:05:24;;;;;;;7.47;7.20;;;9.70;99.90;;;;;;4227899;28;20047;-85
2022/12/29 10:08:06;;;;;;;7.28;6.97;;;9.70;99.90;;;;;;4217356;28;20047;-85
2022/12/29 10:10:41;;;;;;;7.00;6.70;;;9.70;99.90;;;;;;4234843;28;20049;-85
2022/12/29 10:13:28;;;;;;;8.75;8.00;;;9.80;99.90;;;;;;4227815;28;20066;-85
2022/12/29 10:15:58;;;;;;;8.23;7.90;;;9.80;99.90;;;;;;4235731;28;20058;-86
2022/12/29 10:18:37;;;;;;;7.30;7.00;;;9.80;99.90;;;;;;4233352;28;20052;-86
2022/12/29 10:21:32;;;;;;;6.72;6.43;;;9.80;99.90;;;;;;4232607;28;20054;-85
2022/12/29 10:23:53;;;;;;;7.80;7.47;;;9.90;99.90;;;;;;4215505;28;20143;-86
2022/12/29 10:26:44;;;;;;;7.82;7.35;;;9.90;99.90;;;;;;4226891;28;20051;-85
2022/12/29 10:29:06;;;;;;;8.00;7.43;;;9.90;99.90;;;;;;4170823;28;20367;-85
2022/12/29 10:31:41;;;;;;;6.70;6.38;;;9.90;99.90;;;;;;4172451;28;20076;-85
2022/12/29 10:34:10;;;;;;;7.32;6.82;;;9.90;99.90;;;;;;4173576;28;20124;-85
2022/12/29 10:36:43;;;;;;;6.65;6.25;;;9.90;99.90;;;;;;4184938;28;20128;-85
2022/12/29 10:39:14;;;;;;;7.90;7.57;;;10.00;99.90;;;;;;4184625;28;20040;-86
2022/12/29 10:42:15;;;;;;;8.60;7.80;;;10.00;99.90;;;;;;4185954;28;20082;-85
2022/12/29 10:44:35;;;;;;;7.13;6.38;;;10.00;99.90;;;;;;4168388;28;20173;-86
2022/12/29 10:47:00;;;;;;;8.30;7.40;;;10.00;99.90;;;;;;4185487;28;20148;-86
2022/12/29 10:49:21;;;;;;;7.03;6.50;;;10.00;99.90;;;;;;4187676;28;20367;-85
2022/12/29 10:51:46;;;;;;;6.60;6.30;;;10.00;99.90;;;;;;4185640;28;20110;-85
2022/12/29 10:54:15;;;;;;;7.00;6.75;;;10.00;99.90;;;;;;4187436;28;20159;-86
2022/12/29 10:56:40;;;;;;;7.20;6.70;;;10.00;99.90;;;;;;4182561;28;20160;-86
2022/12/29 10:59:21;;;;;;;8.02;7.50;;;10.00;99.90;;;;;;4171347;28;20223;-85
2022/12/29 11:02:02;;;;;;;7.65;7.15;;;10.10;99.90;;;;;;4183792;28;20052;-86
2022/12/29 11:04:47;;;;;;;8.23;7.63;;;10.10;99.90;;;;;;4185454;28;20116;-85
2022/12/29 11:07:09;;;;;;;6.53;6.05;;;10.10;99.90;;;;;;4232779;28;20039;-85
2022/12/29 11:09:38;;;;;;;8.75;8.05;;;10.20;99.90;;;;;;4233771;28;20050;-86
2022/12/29 11:12:26;;;;;;;8.13;7.82;;;10.20;99.90;;;;;;4225288;28;20040;-85
2022/12/29 11:14:46;;;;;;;8.50;7.90;;;10.30;99.90;;;;;;4229018;28;20063;-85
2022/12/29 11:17:15;;;;;;;9.35;8.65;;;10.30;99.90;;;;;;4222671;28;20085;-85
2022/12/29 11:19:35;;;;;;;7.97;7.65;;;10.40;99.90;;;;;;4227316;28;20059;-86
2022/12/29 11:22:25;;;;;;;6.63;6.32;;;10.50;99.90;;;;;;4222380;28;20298;-85
2022/12/29 11:24:47;;;;;;;8.00;7.43;;;10.50;99.90;;;;;;4231074;28;20047;-85
2022/12/29 11:27:26;;;;;;;7.50;7.20;;;10.50;99.90;;;;;;4232165;28;20046;-85
2022/12/29 11:29:46;;;;;;;7.07;6.70;;;10.60;99.90;;;;;;4229053;28;20093;-85
2022/12/29 11:32:24;;;;;;;9.23;8.50;;;10.70;99.90;;;;;;4214339;28;20074;-85
2022/12/29 11:34:49;;;;;;;12.70;9.55;;;10.60;99.90;;;;;;4232113;28;20043;-85
2022/12/29 11:37:14;;;;;;;6.95;6.50;;;10.70;99.90;;;;;;4226584;28;20078;-85
2022/12/29 11:39:40;;;;;;;8.00;7.47;;;10.90;99.90;;;;;;4229248;28;20078;-86
2022/12/29 11:42:02;;;;;;;7.85;7.35;;;10.70;99.90;;;;;;4215226;28;20039;-85
2022/12/29 11:44:23;;;;;;;7.05;6.72;;;10.70;99.90;;;;;;4221043;28;20366;-85
2022/12/29 11:46:47;;;;;;;6.30;6.00;;;10.70;99.90;;;;;;4221748;28;20043;-85
2022/12/29 11:49:18;;;;;;;6.60;6.25;;;10.70;99.90;;;;;;4214804;28;20116;-86
2022/12/29 11:51:45;;;;;;;6.03;5.90;;;10.70;99.90;;;;;;4229494;28;20077;-85
2022/12/29 11:54:05;;;;;;;8.68;7.85;;;10.70;99.90;;;;;;4227859;28;20362;-85
2022/12/29 11:56:40;;;;;;;7.95;7.57;;;10.80;99.90;;;;;;4212394;28;20065;-85
2022/12/29 11:59:38;;;;;;;7.80;7.47;;;10.70;99.90;;;;;;4226362;28;20148;-85
2022/12/29 12:02:21;;;;;;;10.48;9.90;;;10.80;99.90;;;;;;4213705;28;20330;-86
2022/12/29 12:04:41;;;;;;;7.45;7.05;;;10.90;99.90;;;;;;4228094;28;20474;-85
2022/12/29 12:07:12;;;;;;;7.38;6.78;;;10.80;99.90;;;;;;4226878;28;20081;-86
2022/12/29 12:09:38;;;;;;;7.82;7.13;;;10.90;99.90;;;;;;4228942;28;20055;-85
2022/12/29 12:12:00;;;;;;;6.03;5.82;;;10.90;99.90;;;;;;4228998;28;20081;-85
2022/12/29 12:14:23;;;;;;;6.40;6.20;;;11.00;99.90;;;;;;4227770;28;20113;-85
2022/12/29 12:16:57;;;;;;;7.30;6.28;;;11.00;99.90;;;;;;4224663;28;20084;-85
2022/12/29 12:19:26;;;;;;;5.30;5.10;;;11.10;99.90;;;;;;4215840;28;20420;-85
2022/12/29 12:21:56;;;;;;;6.75;6.25;;;11.20;99.90;;;;;;4228446;28;20042;-85
2022/12/29 12:24:22;;;;;;;6.25;5.72;;;11.50;99.90;;;;;;4212518;28;20078;-85
2022/12/29 12:27:01;;;;;;;4.68;4.50;;;11.70;99.90;;;;;;4211769;28;20073;-86
2022/12/29 12:29:33;;;;;;;5.88;5.38;;;11.90;99.90;;;;;;4227708;28;20074;-85
2022/12/29 12:32:04;;;;;;;5.10;4.90;;;11.70;99.90;;;;;;4223113;28;20043;-86
2022/12/29 12:34:36;;;;;;;6.72;6.43;;;11.60;99.90;;;;;;4222576;28;20126;-86
2022/12/29 12:37:27;;;;;;;5.75;5.20;;;11.50;99.90;;;;;;4227349;28;20054;-85
2022/12/29 12:40:12;;;;;;;6.72;5.63;;;11.50;99.90;;;;;;4229180;28;20046;-85
2022/12/29 12:43:29;;;;;;;4.97;4.68;;;11.50;99.90;;;;;;4230387;28;20047;-84
2022/12/29 12:46:15;;;;;;;7.95;6.43;;;11.60;99.90;;;;;;4164338;28;20080;-87
2022/12/29 12:48:50;;;;;;;5.80;5.60;;;11.60;99.90;;;;;;4156561;28;20238;-87
2022/12/29 12:51:28;;;;;;;5.93;5.57;;;11.70;99.90;;;;;;4170761;28;20107;-86
2022/12/29 12:54:11;;;;;;;6.10;5.70;;;11.70;99.90;;;;;;4169877;28;20272;-87
2022/12/29 12:56:49;;;;;;;5.40;4.97;;;11.80;99.90;;;;;;4171954;28;20060;-87
2022/12/29 12:59:21;;;;;;;4.45;4.22;;;11.90;99.90;;;;;;4172472;28;20240;-87
2022/12/29 13:02:02;;;;;;;3.58;3.35;;;12.00;99.90;;;;;;4169145;28;20367;-87
2022/12/29 13:04:56;;;;;;;5.05;4.75;;;12.10;99.90;;;;;;4170277;28;20068;-86
2022/12/29 13:07:19;;;;;;;;;;;12.30;99.90;;;;;;4172141;28;20076;-87